Time;durP1;ratioP1;P1;durP2;ratioP2;P2;SDS_P1;SDS_P2;PMS_P1;PMS_P2;Temp;Humidity;BMP_temperature;BMP_pressure;BME280_temperature;BME280_humidity;BME280_pressure;Samples;Min_cycle;Max_cycle;Signal;HPM_P1;HPM_P2
2022/02/14 00:00:10;;;;;;;31.00;16.48;;;;;;;-0.77;90.39;142088.59;1748449;82;21036;-57
2022/02/14 00:02:41;;;;;;;34.88;16.02;;;;;;;-0.77;90.29;142087.36;1735315;82;21064;-57
2022/02/14 00:05:10;;;;;;;27.37;14.55;;;;;;;-0.80;90.24;142081.16;1718811;83;21024;-56
2022/02/14 00:07:38;;;;;;;27.98;15.10;;;;;;;-0.81;90.15;142077.45;1718878;83;21028;-56
2022/02/14 00:10:09;;;;;;;28.35;14.38;;;;;;;-0.83;90.18;142072.47;1736494;82;21013;-57
2022/02/14 00:12:41;;;;;;;28.62;15.50;;;;;;;-0.83;90.10;142072.47;1748940;82;21533;-57
2022/02/14 00:15:10;;;;;;;;;;;;;;;-0.85;90.09;142068.73;1751264;81;21081;-56
2022/02/14 00:17:38;;;;;;;29.70;14.68;;;;;;;-0.83;89.99;142073.72;1748668;82;20099;-56
2022/02/14 00:20:06;;;;;;;31.52;13.98;;;;;;;-0.83;89.92;142073.72;1735081;82;21582;-56
2022/02/14 00:22:35;;;;;;;27.62;13.88;;;;;;;-0.83;89.65;142072.47;1719494;82;21626;-56
2022/02/14 00:25:04;;;;;;;28.02;14.78;;;;;;;-0.84;89.58;142071.25;1719199;82;21044;-57
2022/02/14 00:27:32;;;;;;;25.88;13.20;;;;;;;-0.84;89.52;142071.25;1719114;83;21043;-56
2022/02/14 00:29:59;;;;;;;27.87;14.23;;;;;;;-0.86;89.44;142066.27;1729098;82;21028;-57
2022/02/14 00:32:25;;;;;;;23.22;13.55;;;;;;;-0.86;89.34;142066.27;1748787;81;21510;-57
2022/02/14 00:34:52;;;;;;;27.85;13.78;;;;;;;-0.86;89.21;142066.27;1748704;82;21062;-56
2022/02/14 00:37:19;;;;;;;23.40;12.68;;;;;;;-0.88;89.15;142062.53;1748515;82;21095;-57
2022/02/14 00:39:47;;;;;;;27.37;13.18;;;;;;;-0.86;89.06;142066.27;1738896;82;21056;-56
2022/02/14 00:42:14;;;;;;;24.67;12.95;;;;;;;-0.86;88.95;142066.27;1719357;82;21048;-56
2022/02/14 00:44:41;;;;;;;24.02;12.82;;;;;;;-0.87;88.81;142063.75;1719175;82;21020;-56
2022/02/14 00:47:09;;;;;;;24.52;12.68;;;;;;;-0.86;88.71;142066.27;1718887;82;21028;-58
2022/02/14 00:49:36;;;;;;;26.10;12.88;;;;;;;-0.85;88.51;142068.73;1724555;82;21013;-57
2022/02/14 00:52:04;;;;;;;25.25;13.30;;;;;;;-0.83;88.29;142073.72;1748320;82;21028;-58
2022/02/14 00:54:31;;;;;;;23.57;12.53;;;;;;;-0.84;88.10;142071.25;1748691;82;21514;-57
2022/02/14 00:56:58;;;;;;;22.07;11.20;;;;;;;-0.84;87.92;142069.97;1748568;82;21032;-57
2022/02/14 00:59:28;;;;;;;23.05;12.90;;;;;;;-0.86;87.86;142066.27;1748327;82;21021;-58
2022/02/14 01:01:54;;;;;;;23.25;12.03;;;;;;;-0.86;87.77;142066.27;1719285;82;21470;-56
2022/02/14 01:04:21;;;;;;;23.77;12.53;;;;;;;-0.85;87.69;142068.73;1719007;82;21549;-56
2022/02/14 01:06:50;;;;;;;23.57;12.37;;;;;;;-0.84;87.52;142071.25;1719036;82;21075;-56
2022/02/14 01:09:17;;;;;;;21.62;11.68;;;;;;;-0.82;87.38;142074.94;1718819;83;21055;-56
2022/02/14 01:11:45;;;;;;;21.70;11.50;;;;;;;-0.82;87.29;142074.94;1742227;81;21028;-56
2022/02/14 01:14:11;;;;;;;24.07;13.18;;;;;;;-0.82;87.14;142076.17;1747584;82;21016;-56
2022/02/14 01:16:38;;;;;;;22.32;11.30;;;;;;;-0.81;87.07;142077.45;1748782;82;21064;-57
2022/02/14 01:19:05;;;;;;;22.55;12.13;;;;;;;-0.82;86.98;142076.17;1748559;82;21541;-58
2022/02/14 01:21:34;;;;;;;22.07;11.68;;;;;;;-0.82;86.81;142076.17;1748757;81;20976;-58
2022/02/14 01:24:00;;;;;;;22.15;11.48;;;;;;;-0.80;86.71;142081.16;1748571;82;20992;-57
2022/02/14 01:26:27;;;;;;;22.85;11.97;;;;;;;-0.81;86.59;142078.69;1748705;82;21566;-57
2022/02/14 01:28:54;;;;;;;21.33;11.05;;;;;;;-0.81;86.51;142077.45;1730191;82;21068;-57
2022/02/14 01:31:21;;;;;;;28.80;12.35;;;;;;;-0.81;86.45;142078.69;1719117;83;21498;-57
2022/02/14 01:33:49;;;;;;;23.83;12.30;;;;;;;-0.83;86.40;142073.72;1718757;82;21083;-57
2022/02/14 01:36:16;;;;;;;22.70;11.85;;;;;;;-0.81;86.30;142078.69;1719125;83;21063;-56
2022/02/14 01:38:42;;;;;;;21.87;12.00;;;;;;;-0.82;86.21;142076.17;1730534;82;20989;-56
2022/02/14 01:41:11;;;;;;;22.30;11.80;;;;;;;-0.82;86.12;142076.17;1748430;82;21063;-56
2022/02/14 01:43:38;;;;;;;22.52;11.18;;;;;;;-0.83;85.98;142073.72;1748192;82;21573;-56
2022/02/14 01:46:04;;;;;;;18.48;10.35;;;;;;;-0.81;85.85;142077.45;1727476;82;21012;-57
2022/02/14 01:48:31;;;;;;;21.07;10.48;;;;;;;-0.81;85.85;142078.69;1719091;83;21056;-56
2022/02/14 01:50:58;;;;;;;22.17;11.38;;;;;;;-0.82;85.78;142074.94;1718823;83;21044;-57
2022/02/14 01:53:25;;;;;;;19.37;10.28;;;;;;;-0.84;85.73;142071.25;1727402;82;21071;-57
2022/02/14 01:55:53;;;;;;;20.27;10.65;;;;;;;-0.85;85.72;142068.73;1747423;81;21028;-56
2022/02/14 01:58:22;;;;;;;18.92;10.65;;;;;;;-0.88;85.73;142062.53;1748496;81;21075;-58
2022/02/14 02:00:50;;;;;;;22.42;10.72;;;;;;;-0.90;85.77;142056.31;1748813;82;21040;-58
2022/02/14 02:03:18;;;;;;;21.40;11.40;;;;;;;-0.91;85.83;142053.84;1745341;81;21048;-56
2022/02/14 02:05:46;;;;;;;25.08;11.00;;;;;;;-0.93;85.84;142050.11;1719011;83;21063;-57
2022/02/14 02:08:14;;;;;;;21.55;9.80;;;;;;;-0.94;85.88;142047.64;1718818;83;21008;-57
2022/02/14 02:10:41;;;;;;;22.37;9.90;;;;;;;-0.95;85.91;142043.89;1719021;82;21087;-57
2022/02/14 02:13:08;;;;;;;23.32;9.98;;;;;;;-0.94;85.89;142046.36;1719057;83;21012;-57
2022/02/14 02:15:41;;;;;;;20.02;10.35;;;;;;;-0.94;85.85;142046.36;1745724;82;21019;-58
2022/02/14 02:18:06;;;;;;;21.25;11.10;;;;;;;-0.96;85.81;142041.44;1748145;81;21008;-58
2022/02/14 02:20:34;;;;;;;20.85;10.20;;;;;;;-0.98;85.81;142037.69;1745752;82;21071;-57
2022/02/14 02:23:01;;;;;;;20.25;10.58;;;;;;;-0.98;85.83;142037.69;1719154;82;21576;-57
2022/02/14 02:25:28;;;;;;;19.73;11.00;;;;;;;-0.98;85.79;142037.69;1718941;82;21028;-56
2022/02/14 02:27:55;;;;;;;21.68;11.18;;;;;;;-0.99;85.77;142033.94;1718931;83;21035;-58
2022/02/14 02:30:22;;;;;;;19.90;10.78;;;;;;;-1.01;85.80;142029.02;1721604;82;21078;-56
2022/02/14 02:32:51;;;;;;;22.58;10.53;;;;;;;-1.02;85.87;142026.50;1748759;82;21525;-58
2022/02/14 02:35:18;;;;;;;21.07;10.23;;;;;;;-1.03;85.89;142024.03;1748640;82;21071;-56
2022/02/14 02:37:44;;;;;;;23.07;10.35;;;;;;;-1.04;85.91;142021.53;1748850;81;21040;-57
2022/02/14 02:40:13;;;;;;;23.62;10.75;;;;;;;-1.04;85.92;142021.53;1746531;82;21036;-56
2022/02/14 02:42:40;;;;;;;19.90;10.78;;;;;;;-1.08;85.99;142012.84;1749046;82;21455;-57
2022/02/14 02:45:08;;;;;;;18.62;10.55;;;;;;;-1.10;85.99;142009.11;1748658;81;21004;-57
2022/02/14 02:47:36;;;;;;;20.95;10.58;;;;;;;-1.10;85.99;142009.11;1746535;82;20987;-56
2022/02/14 02:50:05;;;;;;;23.10;10.75;;;;;;;-1.11;86.00;142006.64;1747963;81;21107;-57
2022/02/14 02:52:33;;;;;;;21.50;11.00;;;;;;;-1.12;86.01;142004.17;1748584;82;21044;-56
2022/02/14 02:54:59;;;;;;;30.80;13.60;;;;;;;-1.14;86.04;141999.20;1742654;82;21530;-56
2022/02/14 02:57:27;;;;;;;21.60;11.80;;;;;;;-1.14;86.08;141997.97;1719082;82;21001;-58
2022/02/14 02:59:54;;;;;;;20.88;11.50;;;;;;;-1.15;86.05;141995.47;1719471;82;21063;-57
2022/02/14 03:02:21;;;;;;;20.35;10.72;;;;;;;-1.17;86.05;141991.77;1718892;82;20997;-57
2022/02/14 03:04:49;;;;;;;20.72;10.65;;;;;;;-1.18;86.06;141989.25;1739369;81;21016;-56
2022/02/14 03:07:16;;;;;;;22.58;10.80;;;;;;;-1.18;86.07;141989.25;1753897;80;21570;-58
2022/02/14 03:09:43;;;;;;;22.70;11.25;;;;;;;-1.17;86.03;141990.48;1754697;82;21027;-57
2022/02/14 03:12:11;;;;;;;18.02;10.45;;;;;;;-1.16;85.96;141993.00;1742689;82;21075;-56
2022/02/14 03:14:39;;;;;;;20.12;10.30;;;;;;;-1.16;85.89;141993.00;1724643;83;21516;-57
2022/02/14 03:17:10;;;;;;;21.75;10.32;;;;;;;-1.18;85.84;141988.02;1724777;82;21040;-57
2022/02/14 03:19:38;;;;;;;20.43;10.68;;;;;;;-1.20;85.92;141984.28;1724654;82;21151;-57
2022/02/14 03:22:05;;;;;;;21.37;10.43;;;;;;;-1.20;85.88;141984.28;1730425;82;21020;-58
2022/02/14 03:24:33;;;;;;;21.65;11.00;;;;;;;-1.20;85.86;141983.05;1754699;80;21050;-58
2022/02/14 03:27:03;;;;;;;19.98;10.72;;;;;;;-1.20;85.88;141983.05;1754443;82;20997;-57
2022/02/14 03:29:30;;;;;;;20.82;10.32;;;;;;;-1.20;85.88;141984.28;1754650;82;20988;-57
2022/02/14 03:31:56;;;;;;;20.37;10.88;;;;;;;-1.20;85.84;141983.05;1743776;80;21518;-57
2022/02/14 03:34:23;;;;;;;22.82;10.82;;;;;;;-1.22;85.91;141979.34;1724872;82;21003;-58
2022/02/14 03:36:50;;;;;;;18.92;9.90;;;;;;;-1.23;85.98;141976.84;1724797;83;21023;-59
2022/02/14 03:39:16;;;;;;;20.27;10.10;;;;;;;-1.25;86.04;141971.86;1724821;83;21024;-58
2022/02/14 03:41:43;;;;;;;21.85;11.05;;;;;;;-1.25;86.16;141970.63;1729147;82;21478;-58
2022/02/14 03:44:11;;;;;;;26.17;11.18;;;;;;;-1.27;86.24;141966.94;1754628;82;21145;-58
2022/02/14 03:46:37;;;;;;;20.68;10.75;;;;;;;-1.30;86.44;141959.44;1754740;80;21060;-57
2022/02/14 03:49:05;;;;;;;20.70;10.60;;;;;;;-1.32;86.46;141954.52;1717044;82;20996;-59
2022/02/14 03:51:33;;;;;;;20.62;10.45;;;;;;;-1.33;86.54;141953.23;1724637;82;21055;-59
2022/02/14 03:54:00;;;;;;;19.87;9.85;;;;;;;-1.34;86.63;141950.78;1724733;83;21466;-58
2022/02/14 03:56:26;;;;;;;20.30;10.32;;;;;;;-1.36;86.74;141944.56;1724783;83;21008;-57
2022/02/14 03:58:53;;;;;;;24.15;11.68;;;;;;;-1.38;86.89;141939.59;1736128;82;21079;-58
2022/02/14 04:01:20;;;;;;;22.22;11.43;;;;;;;-1.40;87.06;141934.62;1724865;83;21035;-58
2022/02/14 04:03:47;;;;;;;22.07;12.28;;;;;;;-1.42;87.11;141929.69;1725338;82;21068;-55
2022/02/14 04:06:13;;;;;;;21.02;10.90;;;;;;;-1.44;87.24;141924.72;1732070;82;21008;-57
2022/02/14 04:08:40;;;;;;;21.00;10.68;;;;;;;-1.44;87.28;141924.72;1748696;82;21016;-57
2022/02/14 04:11:08;;;;;;;18.75;10.90;;;;;;;-1.44;87.36;141924.72;1748070;82;21073;-59
2022/02/14 04:13:35;;;;;;;22.98;9.98;;;;;;;-1.45;87.37;141923.48;1748491;82;21028;-59
2022/02/14 04:16:02;;;;;;;20.72;9.73;;;;;;;-1.46;87.47;141919.75;1742509;82;21063;-58
2022/02/14 04:18:29;;;;;;;19.82;10.58;;;;;;;-1.46;87.50;141919.75;1718858;83;21601;-58
2022/02/14 04:20:56;;;;;;;25.55;11.00;;;;;;;-1.48;87.51;141914.77;1718812;82;21502;-56
2022/02/14 04:23:23;;;;;;;20.62;11.20;;;;;;;-1.47;87.55;141917.28;1719058;82;21016;-56
2022/02/14 04:25:50;;;;;;;23.52;11.55;;;;;;;-1.47;87.54;141917.28;1740996;82;21059;-60
2022/02/14 04:28:17;;;;;;;21.48;11.22;;;;;;;-1.47;87.62;141917.28;1748708;82;21572;-58
2022/02/14 04:30:44;;;;;;;21.12;10.93;;;;;;;-1.45;87.61;141922.20;1748801;82;20996;-59
2022/02/14 04:33:11;;;;;;;21.33;11.10;;;;;;;-1.46;87.59;141920.97;1748456;81;21075;-57
2022/02/14 04:35:37;;;;;;;21.25;10.82;;;;;;;-1.47;87.62;141917.28;1734537;82;21055;-57
2022/02/14 04:38:04;;;;;;;19.73;11.30;;;;;;;-1.46;87.65;141920.97;1748498;81;21016;-58
2022/02/14 04:40:37;;;;;;;16.55;9.83;;;;;;;-1.45;87.71;141922.20;1748829;82;21032;-57
2022/02/14 04:43:03;;;;;;;22.30;11.00;;;;;;;-1.47;87.75;141917.28;1748715;82;21064;-57
2022/02/14 04:45:30;;;;;;;19.12;10.45;;;;;;;-1.47;87.79;141917.28;1739528;82;21482;-58
2022/02/14 04:47:59;;;;;;;18.42;10.28;;;;;;;-1.48;87.87;141914.77;1719022;83;20972;-56
2022/02/14 04:50:26;;;;;;;19.23;9.88;;;;;;;-1.50;87.95;141909.80;1719011;83;21051;-56
2022/02/14 04:52:53;;;;;;;23.73;11.40;;;;;;;-1.54;88.13;141902.36;1719083;83;21530;-57
2022/02/14 04:55:21;;;;;;;21.12;11.08;;;;;;;-1.57;88.27;141894.92;1718866;82;21021;-58
2022/02/14 04:57:48;;;;;;;20.52;10.63;;;;;;;-1.59;88.44;141888.72;1719045;83;21071;-56
2022/02/14 05:00:17;;;;;;;21.17;12.23;;;;;;;-1.59;88.57;141889.94;1719190;82;21029;-55
2022/02/14 05:02:46;;;;;;;21.27;11.03;;;;;;;-1.59;88.65;141888.72;1719189;83;21494;-56
2022/02/14 05:05:13;;;;;;;23.22;11.05;;;;;;;-1.61;88.79;141883.73;1726306;81;21068;-59
2022/02/14 05:07:41;;;;;;;19.90;11.08;;;;;;;-1.62;88.89;141882.50;1732321;82;21024;-58
2022/02/14 05:10:09;;;;;;;23.55;12.00;;;;;;;-1.63;89.04;141880.05;1710876;82;21041;-57
2022/02/14 05:12:38;;;;;;;25.32;12.00;;;;;;;-1.63;89.24;141878.77;1710968;84;21021;-58
2022/02/14 05:15:07;;;;;;;26.97;12.93;;;;;;;-1.64;89.35;141877.53;1725283;82;21001;-56
2022/02/14 05:17:35;;;;;;;23.60;12.55;;;;;;;-1.63;89.36;141880.05;1740305;82;21031;-57
2022/02/14 05:20:04;;;;;;;26.93;12.80;;;;;;;-1.61;89.45;141884.97;1740540;81;21036;-57
2022/02/14 05:22:31;;;;;;;27.32;12.93;;;;;;;-1.61;89.49;141883.73;1740389;81;21032;-58
2022/02/14 05:24:58;;;;;;;27.77;14.33;;;;;;;-1.60;89.56;141887.48;1731583;81;21141;-57
2022/02/14 05:27:25;;;;;;;28.05;15.18;;;;;;;-1.59;89.62;141889.94;1711118;83;21005;-58
2022/02/14 05:29:52;;;;;;;25.88;14.13;;;;;;;-1.57;89.68;141894.92;1711088;82;21535;-58
2022/02/14 05:32:18;;;;;;;32.15;15.30;;;;;;;-1.51;89.69;141907.33;1711175;82;21027;-57
2022/02/14 05:34:45;;;;;;;28.25;14.75;;;;;;;-1.49;89.62;141912.31;1724596;82;21009;-57
2022/02/14 05:37:12;;;;;;;30.10;14.95;;;;;;;-1.48;89.54;141916.00;1740436;82;21041;-57
2022/02/14 05:39:39;;;;;;;30.85;14.58;;;;;;;-1.44;89.52;141924.72;1740571;82;21452;-58
2022/02/14 05:42:07;;;;;;;27.05;14.23;;;;;;;-1.39;89.44;141938.36;1736187;82;21009;-57
2022/02/14 05:44:33;;;;;;;25.08;13.15;;;;;;;-1.34;89.33;141949.55;1739430;82;21137;-59
2022/02/14 05:47:02;;;;;;;27.00;14.00;;;;;;;-1.25;89.38;141971.86;1740604;82;21025;-55
2022/02/14 05:49:29;;;;;;;27.35;13.48;;;;;;;-0.57;89.36;142135.81;1740630;82;21017;-57
2022/02/14 05:51:56;;;;;;;29.23;14.68;;;;;;;0.61;87.31;142424.20;1727173;82;20993;-57
2022/02/14 05:54:23;;;;;;;31.68;14.28;;;;;;;1.77;82.74;142705.39;1724968;82;20997;-57
2022/02/14 05:56:49;;;;;;;24.02;13.10;;;;;;;2.85;78.39;142966.94;1724081;82;21009;-57
2022/02/14 05:59:17;;;;;;;32.28;14.33;;;;;;;3.74;72.90;143185.12;1724123;82;21443;-57
2022/02/14 06:01:44;;;;;;;31.75;16.02;;;;;;;4.55;69.84;143383.48;1726523;82;21001;-59
2022/02/14 06:04:12;;;;;;;28.42;15.93;;;;;;;5.23;65.01;143548.23;1726885;81;21068;-56
2022/02/14 06:06:41;;;;;;;26.97;15.32;;;;;;;5.73;62.07;143670.66;1734406;82;21044;-59
2022/02/14 06:09:08;;;;;;;29.52;15.88;;;;;;;6.33;59.55;143816.88;1748755;81;21063;-58
2022/02/14 06:11:35;;;;;;;34.03;15.65;;;;;;;7.01;58.14;143981.91;1754489;80;21040;-58
2022/02/14 06:14:01;;;;;;;33.60;15.80;;;;;;;7.74;55.88;144160.81;1754498;82;21495;-58
2022/02/14 06:16:29;;;;;;;27.77;13.75;;;;;;;8.24;54.03;144283.44;1754646;80;21027;-63
2022/02/14 06:18:55;;;;;;;25.80;14.70;;;;;;;8.91;50.93;144447.55;1744386;80;21048;-58
2022/02/14 06:21:22;;;;;;;26.45;15.03;;;;;;;9.42;50.33;144572.83;1724929;82;21023;-61
2022/02/14 06:23:49;;;;;;;25.72;15.10;;;;;;;9.85;47.69;144676.86;1724749;83;21039;-58
2022/02/14 06:26:16;;;;;;;24.70;13.60;;;;;;;10.01;46.21;144716.97;1724792;83;21028;-58
2022/02/14 06:28:44;;;;;;;18.73;12.13;;;;;;;10.25;45.08;144775.86;1731866;82;21061;-58
2022/02/14 06:31:12;;;;;;;27.00;13.95;;;;;;;10.59;44.89;144858.72;1738356;81;21024;-58
2022/02/14 06:33:39;;;;;;;24.57;13.28;;;;;;;11.09;44.08;144981.62;1743176;82;20996;-58
2022/02/14 06:36:07;;;;;;;20.00;11.60;;;;;;;11.53;42.61;145089.59;1754614;82;21021;-59
2022/02/14 06:38:35;;;;;;;22.17;11.68;;;;;;;11.92;41.76;145185.03;1750576;80;21057;-60
2022/02/14 06:41:03;;;;;;;18.82;11.15;;;;;;;11.93;41.09;145188.81;1726348;82;21513;-59
2022/02/14 06:43:31;;;;;;;18.20;12.07;;;;;;;12.39;40.27;145300.59;1753038;82;21596;-59
2022/02/14 06:45:58;;;;;;;19.15;12.55;;;;;;;12.83;39.57;145407.37;1744000;82;21090;-60
2022/02/14 06:48:25;;;;;;;20.80;12.13;;;;;;;13.16;38.18;145490.28;1737533;82;21060;-60
2022/02/14 06:50:52;;;;;;;17.25;10.60;;;;;;;13.51;38.18;145575.83;1744549;81;20972;-60
2022/02/14 06:53:18;;;;;;;18.90;11.15;;;;;;;13.94;37.84;145681.41;1725231;82;21530;-60
2022/02/14 06:55:45;;;;;;;18.87;10.95;;;;;;;14.41;35.85;145797.14;1724649;82;21067;-60
2022/02/14 06:58:12;;;;;;;16.80;9.70;;;;;;;14.58;35.90;145838.72;1724546;83;21079;-60
2022/02/14 07:00:40;;;;;;;16.65;10.43;;;;;;;14.72;34.51;145872.69;1724818;83;21011;-60
2022/02/14 07:03:07;;;;;;;16.37;10.10;;;;;;;14.72;34.51;145872.69;1724723;83;21071;-60
2022/02/14 07:05:35;;;;;;;19.62;10.55;;;;;;;15.12;33.83;145970.86;1747894;81;21519;-60
2022/02/14 07:08:04;;;;;;;17.15;10.43;;;;;;;15.27;34.05;146008.62;1740401;81;21047;-60
2022/02/14 07:10:32;;;;;;;18.90;10.78;;;;;;;15.35;33.54;146027.50;1740577;82;21001;-59
2022/02/14 07:13:00;;;;;;;19.92;11.60;;;;;;;15.47;33.30;146057.72;1722504;82;20969;-60
2022/02/14 07:15:28;;;;;;;15.38;10.32;;;;;;;15.40;33.12;146041.34;1723202;82;21734;-60
2022/02/14 07:17:57;;;;;;;15.48;9.83;;;;;;;15.28;32.67;146011.13;1722506;81;20957;-61
2022/02/14 07:20:25;;;;;;;17.12;10.75;;;;;;;15.20;33.32;145992.23;1726039;82;20981;-60
2022/02/14 07:22:52;;;;;;;18.82;12.07;;;;;;;15.37;32.77;146033.80;1730602;82;21534;-60
2022/02/14 07:25:19;;;;;;;16.30;10.90;;;;;;;15.60;32.35;146089.20;1734744;82;21494;-60
2022/02/14 07:27:46;;;;;;;21.23;11.43;;;;;;;15.67;32.62;146106.78;1725446;82;20996;-60
2022/02/14 07:30:14;;;;;;;23.25;14.28;;;;;;;16.03;32.18;146196.28;1726470;81;21048;-60
2022/02/14 07:32:42;;;;;;;20.02;12.60;;;;;;;16.40;31.42;146285.72;1740750;82;21459;-60
2022/02/14 07:35:12;;;;;;;18.90;11.53;;;;;;;16.44;31.01;146295.81;1739541;82;21028;-60
2022/02/14 07:37:42;;;;;;;16.85;10.13;;;;;;;16.59;30.81;146333.63;1740386;81;21071;-60
2022/02/14 07:40:10;;;;;;;15.28;10.58;;;;;;;16.38;30.89;146280.67;1740628;82;21490;-60
2022/02/14 07:42:38;;;;;;;19.42;11.55;;;;;;;16.27;31.11;146254.22;1719488;82;21056;-60
2022/02/14 07:45:06;;;;;;;20.40;11.85;;;;;;;16.30;30.90;146260.53;1727286;82;20997;-60
2022/02/14 07:47:33;;;;;;;15.38;9.90;;;;;;;16.39;30.91;146284.47;1733948;82;21008;-60
2022/02/14 07:50:00;;;;;;;15.15;10.18;;;;;;;16.58;30.41;146331.06;1735875;81;21005;-60
2022/02/14 07:52:27;;;;;;;18.12;9.98;;;;;;;16.59;30.50;146332.31;1710944;83;21581;-60
2022/02/14 07:54:54;;;;;;;15.72;9.48;;;;;;;16.45;30.64;146298.31;1717493;82;21033;-60
2022/02/14 07:57:21;;;;;;;15.50;9.85;;;;;;;16.01;30.66;146190.00;1710941;84;21032;-60
2022/02/14 07:59:47;;;;;;;16.75;8.88;;;;;;;15.75;31.25;146127.03;1714748;82;21055;-60
2022/02/14 08:02:14;;;;;;;13.03;8.85;;;;;;;15.55;31.59;146076.61;1740680;82;21024;-60
2022/02/14 08:04:43;;;;;;;17.62;10.18;;;;;;;15.54;31.61;146075.31;1735918;82;21082;-60
2022/02/14 08:07:09;;;;;;;14.15;8.53;;;;;;;15.46;31.57;146053.94;1750044;81;20996;-59
2022/02/14 08:09:37;;;;;;;13.43;7.72;;;;;;;15.49;31.37;146062.72;1753368;81;21137;-59
2022/02/14 08:12:08;;;;;;;14.70;8.13;;;;;;;15.50;31.67;146064.03;1735544;82;21024;-59
2022/02/14 08:14:36;;;;;;;14.60;8.65;;;;;;;15.17;31.55;145983.44;1724272;82;21501;-59
2022/02/14 08:17:06;;;;;;;12.90;8.50;;;;;;;15.12;31.99;145970.86;1739907;80;21055;-59
2022/02/14 08:19:34;;;;;;;17.50;9.85;;;;;;;15.19;32.10;145989.73;1753469;80;21046;-59
2022/02/14 08:22:03;;;;;;;16.60;9.50;;;;;;;15.28;32.07;146011.13;1752947;81;21078;-59
2022/02/14 08:24:30;;;;;;;15.80;9.48;;;;;;;15.18;32.20;145985.94;1734217;81;21138;-59
2022/02/14 08:26:57;;;;;;;14.15;9.00;;;;;;;15.35;31.84;146027.50;1723220;82;21086;-59
2022/02/14 08:29:29;;;;;;;13.62;8.45;;;;;;;15.14;31.96;145975.91;1723527;83;21078;-60
2022/02/14 08:31:55;;;;;;;;;;;;;;;14.73;32.58;145875.19;1741546;82;21083;-60
2022/02/14 08:34:22;;;;;;;14.53;9.73;;;;;;;14.69;32.83;145865.14;1738943;82;20431;-59
2022/02/14 08:36:50;;;;;;;13.62;9.40;;;;;;;14.62;33.04;145847.52;1735489;80;21542;-59
2022/02/14 08:39:16;;;;;;;15.93;9.35;;;;;;;14.63;33.04;145850.02;1737575;82;21332;-60
2022/02/14 08:41:44;;;;;;;15.43;9.35;;;;;;;14.34;33.28;145779.53;1736298;82;21110;-60
2022/02/14 08:44:11;;;;;;;15.53;10.00;;;;;;;13.90;33.87;145672.63;1734048;81;21079;-59
2022/02/14 08:46:39;;;;;;;20.25;12.70;;;;;;;13.50;34.54;145572.03;1740903;82;21557;-59
2022/02/14 08:49:07;;;;;;;21.45;12.78;;;;;;;13.08;35.40;145470.19;1723216;83;21142;-59
2022/02/14 08:51:35;;;;;;;17.75;10.55;;;;;;;12.35;36.32;145291.77;1723327;83;21275;-59
2022/02/14 08:54:02;;;;;;;17.27;10.65;;;;;;;11.86;37.24;145169.94;1735596;80;21007;-58
2022/02/14 08:56:28;;;;;;;15.83;8.90;;;;;;;11.50;37.91;145083.31;1752959;82;21052;-58
2022/02/14 08:58:55;;;;;;;15.88;9.48;;;;;;;11.06;38.74;144975.34;1753726;82;21627;-58
2022/02/14 09:01:23;;;;;;;13.40;8.43;;;;;;;10.63;39.64;144870.02;1753028;81;21020;-58
2022/02/14 09:03:52;;;;;;;14.38;8.68;;;;;;;10.16;40.51;144753.33;1747531;82;21012;-59
2022/02/14 09:06:20;;;;;;;17.77;9.53;;;;;;;9.89;41.12;144688.11;1722085;83;21091;-58
2022/02/14 09:08:47;;;;;;;15.55;8.63;;;;;;;9.54;41.72;144601.63;1719546;82;21067;-58
2022/02/14 09:11:14;;;;;;;17.67;9.43;;;;;;;9.28;42.20;144537.72;1717878;82;21130;-58
2022/02/14 09:13:41;;;;;;;19.52;9.93;;;;;;;8.68;43.27;144391.19;1717612;83;21079;-58
2022/02/14 09:16:09;;;;;;;18.82;9.20;;;;;;;8.29;44.11;144294.72;1717669;83;21032;-58
2022/02/14 09:18:38;;;;;;;15.78;9.55;;;;;;;7.98;44.87;144220.84;1717551;82;21094;-58
2022/02/14 09:21:06;;;;;;;19.15;11.38;;;;;;;7.74;45.70;144160.81;1722902;82;21581;-58
2022/02/14 09:23:33;;;;;;;21.65;12.10;;;;;;;7.46;46.32;144092.00;1717768;83;21043;-58
2022/02/14 09:26:01;;;;;;;20.62;11.48;;;;;;;7.27;47.26;144046.94;1717895;82;21082;-58
2022/02/14 09:28:28;;;;;;;20.52;12.73;;;;;;;7.09;47.75;144001.92;1717758;83;21032;-58
2022/02/14 09:30:54;;;;;;;19.20;10.53;;;;;;;6.84;48.49;143940.63;1739569;81;21545;-58
2022/02/14 09:33:22;;;;;;;18.42;9.80;;;;;;;6.54;48.90;143868.16;1747257;82;21071;-57
2022/02/14 09:35:49;;;;;;;15.95;9.23;;;;;;;6.04;50.41;143746.89;1747797;82;21095;-58
2022/02/14 09:38:16;;;;;;;13.40;8.40;;;;;;;5.58;51.80;143633.17;1733964;82;21127;-58
2022/02/14 09:40:43;;;;;;;22.87;9.35;;;;;;;5.14;52.98;143527.03;1743715;82;21070;-58
2022/02/14 09:43:13;;;;;;;15.00;8.90;;;;;;;4.87;53.73;143460.84;1747507;82;21114;-58
2022/02/14 09:45:41;;;;;;;17.30;9.10;;;;;;;4.74;54.14;143428.41;1747522;82;21095;-58
2022/02/14 09:48:12;;;;;;;20.17;9.45;;;;;;;4.60;54.83;143394.67;1746939;82;21114;-58
2022/02/14 09:50:41;;;;;;;17.30;9.78;;;;;;;4.45;55.97;143358.53;1746889;82;20993;-58
2022/02/14 09:53:11;;;;;;;21.45;10.45;;;;;;;4.38;55.93;143339.81;1747771;81;21043;-57
2022/02/14 09:55:39;;;;;;;20.55;9.53;;;;;;;4.33;56.67;143328.58;1747659;81;21008;-58
2022/02/14 09:58:07;;;;;;;20.37;10.05;;;;;;;4.30;56.51;143321.05;1732974;82;21122;-58
2022/02/14 10:00:36;;;;;;;14.93;8.65;;;;;;;4.26;57.15;143311.09;1718029;83;21558;-60
2022/02/14 10:03:16;;;;;;;19.42;9.03;;;;;;;4.23;56.44;143303.63;1719735;82;21107;-58
2022/02/14 10:05:50;;;;;;;;;;;;;;;4.21;56.17;143299.86;1747379;82;21098;-58
2022/02/14 10:08:32;;;;;;;17.65;10.32;;;;;;;4.18;56.81;143292.38;1728138;81;20163;-58
2022/02/14 10:11:13;;;;;;;18.92;9.03;;;;;;;4.10;57.33;143272.44;1724139;83;21079;-58
2022/02/14 10:13:43;;;;;;;18.00;9.55;;;;;;;4.08;57.22;143268.67;1723644;83;21020;-58
2022/02/14 10:16:13;;;;;;;15.13;9.58;;;;;;;4.05;57.51;143261.19;1750351;82;20969;-58
2022/02/14 10:18:42;;;;;;;20.77;9.60;;;;;;;4.00;57.96;143248.72;1753280;80;21043;-58
2022/02/14 10:21:20;;;;;;;15.68;9.03;;;;;;;4.06;57.67;143263.67;1744138;80;21533;-57
2022/02/14 10:24:13;;;;;;;13.72;7.87;;;;;;;4.16;56.93;143286.14;1723649;82;21079;-58
2022/02/14 10:26:47;;;;;;;16.42;8.05;;;;;;;4.18;56.57;143292.38;1723672;82;21033;-58
2022/02/14 10:29:22;;;;;;;17.67;8.65;;;;;;;4.19;56.59;143293.62;1723617;82;21592;-58
2022/02/14 10:31:58;;;;;;;11.45;6.95;;;;;;;4.19;56.62;143294.86;1735217;82;21051;-58
2022/02/14 10:34:40;;;;;;;20.43;8.90;;;;;;;4.16;56.01;143286.14;1753406;80;21047;-57
2022/02/14 10:37:14;;;;;;;15.03;8.45;;;;;;;4.21;56.08;143298.63;1753206;80;21079;-60
2022/02/14 10:39:43;;;;;;;16.57;8.33;;;;;;;4.27;55.70;143313.58;1753382;82;21608;-58
2022/02/14 10:42:20;;;;;;;18.70;8.10;;;;;;;4.25;55.79;143308.56;1741539;82;21068;-58
2022/02/14 10:45:08;;;;;;;16.90;7.67;;;;;;;4.27;55.66;143314.81;1723930;82;21051;-59
2022/02/14 10:47:46;;;;;;;19.35;8.23;;;;;;;4.35;55.14;143333.53;1747595;82;21063;-58
2022/02/14 10:50:23;;;;;;;19.87;9.38;;;;;;;4.45;55.33;143358.53;1747388;80;21073;-58
2022/02/14 10:52:55;;;;;;;18.07;9.58;;;;;;;4.60;55.49;143393.44;1725666;82;20972;-57
2022/02/14 10:55:37;;;;;;;22.15;12.28;;;;;;;4.73;55.35;143425.88;1736830;82;21020;-57
2022/02/14 10:58:03;;;;;;;16.45;6.83;;;;;;;4.85;54.80;143455.84;1748810;82;21483;-58
2022/02/14 11:00:38;;;;;;;16.62;7.40;;;;;;;4.75;53.84;143430.87;1742470;82;21119;-58
2022/02/14 11:03:11;;;;;;;16.07;7.72;;;;;;;4.60;54.34;143394.67;1730033;82;21044;-59
2022/02/14 11:05:40;;;;;;;;;;;;;;;4.54;54.47;143380.95;1752559;82;21044;-58
2022/02/14 11:08:09;;;;;;;16.70;7.28;;;;;;;4.51;53.68;143372.25;1716206;82;20380;-58
2022/02/14 11:10:44;;;;;;;15.65;7.90;;;;;;;4.57;53.01;143388.44;1710473;82;21131;-58
2022/02/14 11:13:13;;;;;;;13.98;6.40;;;;;;;4.64;52.88;143403.44;1728943;81;21576;-58
2022/02/14 11:15:42;;;;;;;13.25;7.10;;;;;;;4.71;52.50;143420.92;1720369;81;21052;-58
2022/02/14 11:18:23;;;;;;;15.38;7.45;;;;;;;4.69;52.63;143415.92;1713239;81;21038;-57